sensor_id;sensor_type;location;lat;lon;timestamp;pressure;altitude;pressure_sealevel;temperature;humidity
50356;BME280;36264;51.296;-0.602;2023-07-28T00:01:24;100354.75;;;21.48;100.00
50356;BME280;36264;51.296;-0.602;2023-07-28T00:03:50;100354.75;;;21.48;100.00
50356;BME280;36264;51.296;-0.602;2023-07-28T00:06:15;100352.00;;;21.49;100.00
50356;BME280;36264;51.296;-0.602;2023-07-28T00:08:40;100349.94;;;21.53;100.00
50356;BME280;36264;51.296;-0.602;2023-07-28T00:11:10;100346.03;;;21.68;100.00
50356;BME280;36264;51.296;-0.602;2023-07-28T00:13:37;100343.31;;;21.47;100.00
50356;BME280;36264;51.296;-0.602;2023-07-28T00:16:03;100343.56;;;21.44;100.00
50356;BME280;36264;51.296;-0.602;2023-07-28T00:18:28;100338.28;;;21.44;100.00
50356;BME280;36264;51.296;-0.602;2023-07-28T00:20:54;100346.94;;;21.46;100.00
50356;BME280;36264;51.296;-0.602;2023-07-28T00:23:19;100347.19;;;21.43;100.00
50356;BME280;36264;51.296;-0.602;2023-07-28T00:25:45;100350.66;;;21.44;100.00
50356;BME280;36264;51.296;-0.602;2023-07-28T00:28:10;100339.28;;;21.43;100.00
50356;BME280;36264;51.296;-0.602;2023-07-28T00:30:35;100345.63;;;21.41;100.00
50356;BME280;36264;51.296;-0.602;2023-07-28T00:33:01;100336.94;;;21.29;100.00
50356;BME280;36264;51.296;-0.602;2023-07-28T00:35:26;100344.13;;;21.27;100.00
50356;BME280;36264;51.296;-0.602;2023-07-28T00:37:51;100345.75;;;21.18;100.00
50356;BME280;36264;51.296;-0.602;2023-07-28T00:40:17;100353.34;;;21.11;100.00
50356;BME280;36264;51.296;-0.602;2023-07-28T00:42:42;100357.75;;;21.11;100.00
50356;BME280;36264;51.296;-0.602;2023-07-28T00:45:08;100348.75;;;21.13;100.00
50356;BME280;36264;51.296;-0.602;2023-07-28T00:47:34;100358.38;;;21.14;100.00
50356;BME280;36264;51.296;-0.602;2023-07-28T00:49:59;100346.94;;;21.14;100.00
50356;BME280;36264;51.296;-0.602;2023-07-28T00:52:25;100345.03;;;21.16;100.00
50356;BME280;36264;51.296;-0.602;2023-07-28T00:54:50;100350.53;;;21.24;100.00
50356;BME280;36264;51.296;-0.602;2023-07-28T00:57:15;100345.81;;;21.28;100.00
50356;BME280;36264;51.296;-0.602;2023-07-28T00:59:44;100346.16;;;21.34;100.00
50356;BME280;36264;51.296;-0.602;2023-07-28T01:02:10;100358.78;;;21.31;100.00
50356;BME280;36264;51.296;-0.602;2023-07-28T01:04:35;100349.03;;;21.31;100.00
50356;BME280;36264;51.296;-0.602;2023-07-28T01:07:10;100347.13;;;21.33;100.00
50356;BME280;36264;51.296;-0.602;2023-07-28T01:10:01;100357.50;;;21.58;100.00
50356;BME280;36264;51.296;-0.602;2023-07-28T01:12:27;100349.78;;;21.33;100.00
50356;BME280;36264;51.296;-0.602;2023-07-28T01:14:52;100346.53;;;21.30;100.00
50356;BME280;36264;51.296;-0.602;2023-07-28T01:17:17;100350.84;;;21.31;100.00
50356;BME280;36264;51.296;-0.602;2023-07-28T01:19:44;100348.34;;;21.29;100.00
50356;BME280;36264;51.296;-0.602;2023-07-28T01:25:32;100359.88;;;21.61;100.00
50356;BME280;36264;51.296;-0.602;2023-07-28T01:28:02;100357.38;;;21.48;100.00
50356;BME280;36264;51.296;-0.602;2023-07-28T01:30:28;100361.00;;;21.47;100.00
50356;BME280;36264;51.296;-0.602;2023-07-28T01:32:55;100367.59;;;21.52;100.00
50356;BME280;36264;51.296;-0.602;2023-07-28T01:35:21;100359.47;;;21.33;100.00
50356;BME280;36264;51.296;-0.602;2023-07-28T01:37:46;100365.13;;;21.28;100.00
50356;BME280;36264;51.296;-0.602;2023-07-28T01:40:16;100360.97;;;21.26;100.00
50356;BME280;36264;51.296;-0.602;2023-07-28T01:42:42;100365.44;;;21.14;100.00
50356;BME280;36264;51.296;-0.602;2023-07-28T01:45:07;100369.38;;;21.20;100.00
50356;BME280;36264;51.296;-0.602;2023-07-28T01:47:33;100359.94;;;21.06;100.00
50356;BME280;36264;51.296;-0.602;2023-07-28T01:49:58;100359.00;;;21.07;100.00
50356;BME280;36264;51.296;-0.602;2023-07-28T01:52:24;100363.91;;;21.11;100.00
50356;BME280;36264;51.296;-0.602;2023-07-28T01:54:49;100362.91;;;21.12;100.00
50356;BME280;36264;51.296;-0.602;2023-07-28T01:57:15;100366.41;;;21.13;100.00
50356;BME280;36264;51.296;-0.602;2023-07-28T01:59:41;100354.53;;;21.07;100.00
50356;BME280;36264;51.296;-0.602;2023-07-28T02:02:06;100364.22;;;21.18;100.00
50356;BME280;36264;51.296;-0.602;2023-07-28T02:04:32;100362.03;;;21.23;100.00
50356;BME280;36264;51.296;-0.602;2023-07-28T02:06:57;100357.13;;;21.18;100.00
50356;BME280;36264;51.296;-0.602;2023-07-28T02:09:22;100357.13;;;21.18;100.00
50356;BME280;36264;51.296;-0.602;2023-07-28T02:11:48;100351.59;;;21.22;100.00
50356;BME280;36264;51.296;-0.602;2023-07-28T02:14:13;100354.97;;;21.24;100.00
50356;BME280;36264;51.296;-0.602;2023-07-28T02:16:38;100344.66;;;21.21;100.00
50356;BME280;36264;51.296;-0.602;2023-07-28T02:19:04;100353.03;;;21.26;100.00
50356;BME280;36264;51.296;-0.602;2023-07-28T02:21:30;100346.06;;;21.25;100.00
50356;BME280;36264;51.296;-0.602;2023-07-28T02:23:55;100351.47;;;21.23;100.00
50356;BME280;36264;51.296;-0.602;2023-07-28T02:26:20;100350.19;;;21.17;100.00
50356;BME280;36264;51.296;-0.602;2023-07-28T02:28:46;100333.16;;;21.10;100.00
50356;BME280;36264;51.296;-0.602;2023-07-28T02:31:11;100346.81;;;21.15;100.00
50356;BME280;36264;51.296;-0.602;2023-07-28T02:33:36;100348.50;;;21.16;100.00
50356;BME280;36264;51.296;-0.602;2023-07-28T02:36:04;100340.28;;;21.31;100.00
50356;BME280;36264;51.296;-0.602;2023-07-28T02:38:29;100351.03;;;21.18;100.00
50356;BME280;36264;51.296;-0.602;2023-07-28T02:40:55;100350.66;;;21.23;100.00
50356;BME280;36264;51.296;-0.602;2023-07-28T02:43:20;100350.91;;;21.20;100.00
50356;BME280;36264;51.296;-0.602;2023-07-28T02:45:53;100358.28;;;21.37;100.00
50356;BME280;36264;51.296;-0.602;2023-07-28T02:48:18;100353.47;;;21.10;100.00
50356;BME280;36264;51.296;-0.602;2023-07-28T02:50:47;100347.50;;;21.29;100.00
50356;BME280;36264;51.296;-0.602;2023-07-28T02:53:13;100347.94;;;21.13;100.00
50356;BME280;36264;51.296;-0.602;2023-07-28T02:55:43;100341.63;;;21.25;100.00
50356;BME280;36264;51.296;-0.602;2023-07-28T02:58:09;100336.19;;;21.06;100.00
50356;BME280;36264;51.296;-0.602;2023-07-28T03:00:39;100341.53;;;21.15;100.00
50356;BME280;36264;51.296;-0.602;2023-07-28T03:03:05;100343.28;;;21.05;100.00
50356;BME280;36264;51.296;-0.602;2023-07-28T03:05:31;100348.94;;;21.01;100.00
50356;BME280;36264;51.296;-0.602;2023-07-28T03:07:57;100345.59;;;20.98;100.00
50356;BME280;36264;51.296;-0.602;2023-07-28T03:10:23;100344.28;;;20.93;100.00
50356;BME280;36264;51.296;-0.602;2023-07-28T03:12:48;100347.50;;;20.96;100.00
50356;BME280;36264;51.296;-0.602;2023-07-28T03:15:14;100351.81;;;20.97;100.00
50356;BME280;36264;51.296;-0.602;2023-07-28T03:17:39;100356.97;;;20.99;100.00
50356;BME280;36264;51.296;-0.602;2023-07-28T03:20:05;100360.56;;;20.98;100.00
50356;BME280;36264;51.296;-0.602;2023-07-28T03:22:31;100361.06;;;20.92;100.00
50356;BME280;36264;51.296;-0.602;2023-07-28T03:24:56;100363.44;;;20.95;100.00
50356;BME280;36264;51.296;-0.602;2023-07-28T03:27:22;100367.78;;;20.96;100.00
50356;BME280;36264;51.296;-0.602;2023-07-28T03:29:47;100372.47;;;20.92;100.00
50356;BME280;36264;51.296;-0.602;2023-07-28T03:32:12;100380.63;;;20.89;100.00
50356;BME280;36264;51.296;-0.602;2023-07-28T03:34:38;100368.41;;;20.88;100.00
50356;BME280;36264;51.296;-0.602;2023-07-28T03:37:03;100369.09;;;20.90;100.00
50356;BME280;36264;51.296;-0.602;2023-07-28T03:39:29;100362.88;;;20.91;100.00
50356;BME280;36264;51.296;-0.602;2023-07-28T03:41:56;100361.66;;;20.95;100.00
50356;BME280;36264;51.296;-0.602;2023-07-28T03:44:21;100367.31;;;20.91;100.00
50356;BME280;36264;51.296;-0.602;2023-07-28T03:46:47;100362.16;;;20.89;100.00
50356;BME280;36264;51.296;-0.602;2023-07-28T03:49:12;100366.13;;;20.84;100.00
50356;BME280;36264;51.296;-0.602;2023-07-28T03:51:38;100377.41;;;20.86;100.00
50356;BME280;36264;51.296;-0.602;2023-07-28T03:54:03;100376.56;;;20.85;100.00
50356;BME280;36264;51.296;-0.602;2023-07-28T03:56:29;100373.09;;;20.85;100.00
50356;BME280;36264;51.296;-0.602;2023-07-28T03:58:54;100375.63;;;20.75;100.00
50356;BME280;36264;51.296;-0.602;2023-07-28T04:01:19;100379.09;;;20.75;100.00
50356;BME280;36264;51.296;-0.602;2023-07-28T04:03:47;100378.88;;;20.67;100.00
50356;BME280;36264;51.296;-0.602;2023-07-28T04:06:12;100379.94;;;20.65;100.00
50356;BME280;36264;51.296;-0.602;2023-07-28T04:08:37;100384.97;;;20.56;100.00
50356;BME280;36264;51.296;-0.602;2023-07-28T04:11:03;100387.13;;;20.51;100.00
50356;BME280;36264;51.296;-0.602;2023-07-28T04:13:28;100384.97;;;20.45;100.00
50356;BME280;36264;51.296;-0.602;2023-07-28T04:15:54;100402.00;;;20.30;100.00
50356;BME280;36264;51.296;-0.602;2023-07-28T04:18:19;100394.91;;;20.19;100.00
50356;BME280;36264;51.296;-0.602;2023-07-28T04:20:45;100401.63;;;20.12;100.00
50356;BME280;36264;51.296;-0.602;2023-07-28T04:23:11;100407.59;;;20.14;100.00
50356;BME280;36264;51.296;-0.602;2023-07-28T04:25:36;100403.16;;;20.14;100.00
50356;BME280;36264;51.296;-0.602;2023-07-28T04:28:02;100406.91;;;20.23;100.00
50356;BME280;36264;51.296;-0.602;2023-07-28T04:30:27;100411.81;;;20.16;100.00
50356;BME280;36264;51.296;-0.602;2023-07-28T04:32:53;100421.25;;;20.07;100.00
50356;BME280;36264;51.296;-0.602;2023-07-28T04:35:18;100411.69;;;20.06;100.00
50356;BME280;36264;51.296;-0.602;2023-07-28T04:37:44;100415.75;;;20.11;100.00
50356;BME280;36264;51.296;-0.602;2023-07-28T04:40:10;100410.22;;;20.02;100.00
50356;BME280;36264;51.296;-0.602;2023-07-28T04:42:35;100418.59;;;19.96;100.00
50356;BME280;36264;51.296;-0.602;2023-07-28T04:45:01;100409.63;;;19.99;100.00
50356;BME280;36264;51.296;-0.602;2023-07-28T04:47:27;100407.94;;;19.98;100.00
50356;BME280;36264;51.296;-0.602;2023-07-28T04:49:52;100410.47;;;19.99;100.00
50356;BME280;36264;51.296;-0.602;2023-07-28T04:52:18;100412.97;;;20.01;100.00
50356;BME280;36264;51.296;-0.602;2023-07-28T04:54:43;100405.91;;;20.01;100.00
50356;BME280;36264;51.296;-0.602;2023-07-28T04:57:09;100406.41;;;20.06;100.00
50356;BME280;36264;51.296;-0.602;2023-07-28T04:59:34;100403.28;;;20.13;100.00
50356;BME280;36264;51.296;-0.602;2023-07-28T05:01:59;100398.28;;;20.21;100.00
50356;BME280;36264;51.296;-0.602;2023-07-28T05:04:25;100397.81;;;20.27;100.00
50356;BME280;36264;51.296;-0.602;2023-07-28T05:06:50;100376.84;;;20.25;100.00
50356;BME280;36264;51.296;-0.602;2023-07-28T05:09:15;100380.53;;;20.34;100.00
50356;BME280;36264;51.296;-0.602;2023-07-28T05:11:41;100384.13;;;20.33;100.00
50356;BME280;36264;51.296;-0.602;2023-07-28T05:14:06;100383.66;;;20.39;100.00
50356;BME280;36264;51.296;-0.602;2023-07-28T05:16:34;100391.31;;;20.42;100.00
50356;BME280;36264;51.296;-0.602;2023-07-28T05:18:59;100385.09;;;20.43;100.00
50356;BME280;36264;51.296;-0.602;2023-07-28T05:21:25;100387.97;;;20.40;100.00
50356;BME280;36264;51.296;-0.602;2023-07-28T05:23:50;100386.28;;;20.39;100.00
50356;BME280;36264;51.296;-0.602;2023-07-28T05:26:16;100392.88;;;20.45;100.00
50356;BME280;36264;51.296;-0.602;2023-07-28T05:28:41;100389.78;;;20.51;100.00
50356;BME280;36264;51.296;-0.602;2023-07-28T05:31:07;100394.09;;;20.63;100.00
50356;BME280;36264;51.296;-0.602;2023-07-28T05:33:33;100399.63;;;20.72;100.00
50356;BME280;36264;51.296;-0.602;2023-07-28T05:36:04;100393.34;;;20.95;100.00
50356;BME280;36264;51.296;-0.602;2023-07-28T05:38:30;100392.88;;;20.79;100.00
50356;BME280;36264;51.296;-0.602;2023-07-28T05:40:59;100397.44;;;20.88;100.00
50356;BME280;36264;51.296;-0.602;2023-07-28T05:43:26;100399.16;;;20.67;100.00
50356;BME280;36264;51.296;-0.602;2023-07-28T05:45:52;100399.50;;;20.62;100.00
50356;BME280;36264;51.296;-0.602;2023-07-28T05:48:17;100402.38;;;20.70;100.00
50356;BME280;36264;51.296;-0.602;2023-07-28T05:50:42;100404.16;;;20.70;100.00
50356;BME280;36264;51.296;-0.602;2023-07-28T05:53:08;100404.91;;;20.72;100.00
50356;BME280;36264;51.296;-0.602;2023-07-28T05:55:33;100404.63;;;20.52;100.00
50356;BME280;36264;51.296;-0.602;2023-07-28T05:57:58;100406.53;;;20.61;100.00
50356;BME280;36264;51.296;-0.602;2023-07-28T06:00:24;100404.75;;;20.62;100.00
50356;BME280;36264;51.296;-0.602;2023-07-28T06:02:49;100411.38;;;20.68;100.00
50356;BME280;36264;51.296;-0.602;2023-07-28T06:05:14;100407.53;;;20.72;100.00
50356;BME280;36264;51.296;-0.602;2023-07-28T06:07:40;100406.81;;;20.70;100.00
50356;BME280;36264;51.296;-0.602;2023-07-28T06:10:06;100404.16;;;20.70;100.00
50356;BME280;36264;51.296;-0.602;2023-07-28T06:12:32;100403.69;;;20.65;100.00
50356;BME280;36264;51.296;-0.602;2023-07-28T06:14:57;100401.28;;;20.73;100.00
50356;BME280;36264;51.296;-0.602;2023-07-28T06:17:22;100405.38;;;20.77;100.00
50356;BME280;36264;51.296;-0.602;2023-07-28T06:19:48;100410.28;;;20.81;100.00
50356;BME280;36264;51.296;-0.602;2023-07-28T06:22:13;100406.81;;;20.70;100.00
50356;BME280;36264;51.296;-0.602;2023-07-28T06:24:38;100414.00;;;20.79;100.00
50356;BME280;36264;51.296;-0.602;2023-07-28T06:27:04;100405.47;;;20.87;100.00
50356;BME280;36264;51.296;-0.602;2023-07-28T06:29:33;100402.72;;;20.88;100.00
50356;BME280;36264;51.296;-0.602;2023-07-28T06:31:58;100412.69;;;20.85;100.00
50356;BME280;36264;51.296;-0.602;2023-07-28T06:34:24;100398.63;;;20.95;100.00
50356;BME280;36264;51.296;-0.602;2023-07-28T06:36:49;100400.88;;;21.11;100.00
50356;BME280;36264;51.296;-0.602;2023-07-28T06:39:14;100407.66;;;21.25;100.00
50356;BME280;36264;51.296;-0.602;2023-07-28T06:41:40;100408.22;;;21.40;100.00
50356;BME280;36264;51.296;-0.602;2023-07-28T06:44:05;100396.81;;;21.51;100.00
50356;BME280;36264;51.296;-0.602;2023-07-28T06:46:32;100410.41;;;21.35;100.00
50356;BME280;36264;51.296;-0.602;2023-07-28T06:48:57;100408.66;;;21.45;100.00
50356;BME280;36264;51.296;-0.602;2023-07-28T06:51:22;100411.28;;;21.57;100.00
50356;BME280;36264;51.296;-0.602;2023-07-28T06:53:48;100411.50;;;21.65;100.00
50356;BME280;36264;51.296;-0.602;2023-07-28T06:56:13;100409.19;;;21.71;100.00
50356;BME280;36264;51.296;-0.602;2023-07-28T06:58:39;100402.66;;;21.76;100.00
50356;BME280;36264;51.296;-0.602;2023-07-28T07:01:04;100419.00;;;21.81;100.00
50356;BME280;36264;51.296;-0.602;2023-07-28T07:03:29;100414.81;;;21.78;100.00
50356;BME280;36264;51.296;-0.602;2023-07-28T07:05:55;100412.91;;;21.69;100.00
50356;BME280;36264;51.296;-0.602;2023-07-28T07:08:20;100418.66;;;21.74;100.00
50356;BME280;36264;51.296;-0.602;2023-07-28T07:10:50;100418.56;;;21.97;100.00
50356;BME280;36264;51.296;-0.602;2023-07-28T07:13:15;100419.31;;;21.87;100.00
50356;BME280;36264;51.296;-0.602;2023-07-28T07:15:41;100417.06;;;21.83;100.00
50356;BME280;36264;51.296;-0.602;2023-07-28T07:18:07;100421.59;;;21.92;100.00
50356;BME280;36264;51.296;-0.602;2023-07-28T07:20:37;100422.31;;;22.25;100.00
50356;BME280;36264;51.296;-0.602;2023-07-28T07:23:03;100420.88;;;22.11;100.00
50356;BME280;36264;51.296;-0.602;2023-07-28T07:25:28;100420.59;;;21.93;100.00
50356;BME280;36264;51.296;-0.602;2023-07-28T07:27:54;100422.94;;;21.86;100.00
50356;BME280;36264;51.296;-0.602;2023-07-28T07:30:19;100426.25;;;21.88;100.00
50356;BME280;36264;51.296;-0.602;2023-07-28T07:32:45;100428.66;;;22.13;100.00
50356;BME280;36264;51.296;-0.602;2023-07-28T07:35:10;100423.44;;;22.22;100.00
50356;BME280;36264;51.296;-0.602;2023-07-28T07:37:35;100416.59;;;22.20;100.00
50356;BME280;36264;51.296;-0.602;2023-07-28T07:40:01;100423.41;;;22.43;100.00
50356;BME280;36264;51.296;-0.602;2023-07-28T07:42:28;100421.84;;;22.62;100.00
50356;BME280;36264;51.296;-0.602;2023-07-28T07:44:53;100417.09;;;22.66;100.00
50356;BME280;36264;51.296;-0.602;2023-07-28T07:47:19;100423.31;;;22.86;100.00
50356;BME280;36264;51.296;-0.602;2023-07-28T07:49:44;100427.34;;;23.00;100.00
50356;BME280;36264;51.296;-0.602;2023-07-28T07:52:09;100431.03;;;23.08;100.00
50356;BME280;36264;51.296;-0.602;2023-07-28T07:54:35;100422.19;;;22.88;100.00
50356;BME280;36264;51.296;-0.602;2023-07-28T07:57:01;100424.53;;;22.82;100.00
50356;BME280;36264;51.296;-0.602;2023-07-28T07:59:27;100417.38;;;22.63;100.00
50356;BME280;36264;51.296;-0.602;2023-07-28T08:01:56;100421.03;;;22.40;100.00
50356;BME280;36264;51.296;-0.602;2023-07-28T08:04:21;100416.31;;;22.44;100.00
50356;BME280;36264;51.296;-0.602;2023-07-28T08:06:47;100420.38;;;22.48;100.00
50356;BME280;36264;51.296;-0.602;2023-07-28T08:09:13;100420.69;;;22.55;100.00
50356;BME280;36264;51.296;-0.602;2023-07-28T08:11:39;100421.25;;;22.58;99.17
50356;BME280;36264;51.296;-0.602;2023-07-28T08:14:04;100422.06;;;22.49;100.00
50356;BME280;36264;51.296;-0.602;2023-07-28T08:16:30;100420.94;;;22.52;99.96
50356;BME280;36264;51.296;-0.602;2023-07-28T08:18:55;100419.56;;;22.48;100.00
50356;BME280;36264;51.296;-0.602;2023-07-28T08:21:21;100424.00;;;22.57;100.00
50356;BME280;36264;51.296;-0.602;2023-07-28T08:23:48;100427.03;;;22.73;100.00
50356;BME280;36264;51.296;-0.602;2023-07-28T08:26:13;100428.72;;;22.84;100.00
50356;BME280;36264;51.296;-0.602;2023-07-28T08:28:38;100428.34;;;22.89;98.82
50356;BME280;36264;51.296;-0.602;2023-07-28T08:31:04;100436.84;;;22.92;98.90
50356;BME280;36264;51.296;-0.602;2023-07-28T08:33:29;100431.94;;;22.88;98.41
50356;BME280;36264;51.296;-0.602;2023-07-28T08:35:55;100435.44;;;22.98;98.39
50356;BME280;36264;51.296;-0.602;2023-07-28T08:38:20;100429.38;;;23.17;98.52
50356;BME280;36264;51.296;-0.602;2023-07-28T08:40:46;100433.16;;;23.44;96.87
50356;BME280;36264;51.296;-0.602;2023-07-28T08:43:11;100437.66;;;23.43;97.93
50356;BME280;36264;51.296;-0.602;2023-07-28T08:45:37;100432.06;;;23.56;95.90
50356;BME280;36264;51.296;-0.602;2023-07-28T08:48:03;100438.88;;;23.29;94.29
50356;BME280;36264;51.296;-0.602;2023-07-28T08:50:28;100444.03;;;23.11;96.11
50356;BME280;36264;51.296;-0.602;2023-07-28T08:52:56;100438.59;;;23.32;96.73
50356;BME280;36264;51.296;-0.602;2023-07-28T08:55:21;100435.41;;;23.29;96.16
50356;BME280;36264;51.296;-0.602;2023-07-28T08:57:47;100429.81;;;23.61;97.07
50356;BME280;36264;51.296;-0.602;2023-07-28T09:00:13;100427.31;;;23.79;96.32
50356;BME280;36264;51.296;-0.602;2023-07-28T09:02:42;100430.78;;;23.99;92.81
50356;BME280;36264;51.296;-0.602;2023-07-28T09:05:16;100428.00;;;24.01;93.04
50356;BME280;36264;51.296;-0.602;2023-07-28T09:07:42;100426.34;;;23.90;93.23
50356;BME280;36264;51.296;-0.602;2023-07-28T09:10:08;100424.53;;;23.91;90.95
50356;BME280;36264;51.296;-0.602;2023-07-28T09:12:33;100423.69;;;23.90;89.71
50356;BME280;36264;51.296;-0.602;2023-07-28T09:14:59;100411.94;;;24.02;91.42
50356;BME280;36264;51.296;-0.602;2023-07-28T09:17:24;100416.16;;;23.95;87.37
50356;BME280;36264;51.296;-0.602;2023-07-28T09:19:56;100414.81;;;24.29;90.32
50356;BME280;36264;51.296;-0.602;2023-07-28T09:22:22;100418.03;;;24.22;90.18
50356;BME280;36264;51.296;-0.602;2023-07-28T09:24:48;100421.88;;;24.48;90.79
50356;BME280;36264;51.296;-0.602;2023-07-28T09:29:50;100425.56;;;24.65;89.00
50356;BME280;36264;51.296;-0.602;2023-07-28T09:32:16;100422.53;;;24.50;88.82
50356;BME280;36264;51.296;-0.602;2023-07-28T09:35:05;100420.44;;;24.53;86.11
50356;BME280;36264;51.296;-0.602;2023-07-28T09:37:30;100425.38;;;24.38;89.06
50356;BME280;36264;51.296;-0.602;2023-07-28T09:39:57;100434.41;;;24.55;90.60
50356;BME280;36264;51.296;-0.602;2023-07-28T09:42:23;100426.16;;;24.49;90.72
50356;BME280;36264;51.296;-0.602;2023-07-28T09:44:48;100427.22;;;24.28;88.24
50356;BME280;36264;51.296;-0.602;2023-07-28T09:47:13;100431.66;;;24.00;89.07
50356;BME280;36264;51.296;-0.602;2023-07-28T09:49:41;100438.31;;;24.04;90.85
50356;BME280;36264;51.296;-0.602;2023-07-28T09:52:11;100437.38;;;23.95;91.93
50356;BME280;36264;51.296;-0.602;2023-07-28T09:54:40;100438.75;;;23.80;89.79
50356;BME280;36264;51.296;-0.602;2023-07-28T09:57:13;100441.97;;;23.64;90.93
50356;BME280;36264;51.296;-0.602;2023-07-28T09:59:40;100451.16;;;23.40;93.04
50356;BME280;36264;51.296;-0.602;2023-07-28T10:02:07;100450.19;;;23.41;92.14
50356;BME280;36264;51.296;-0.602;2023-07-28T10:04:33;100458.84;;;23.43;92.22
50356;BME280;36264;51.296;-0.602;2023-07-28T10:06:59;100449.94;;;23.44;93.37
50356;BME280;36264;51.296;-0.602;2023-07-28T10:09:27;100458.28;;;23.49;92.60
50356;BME280;36264;51.296;-0.602;2023-07-28T10:11:53;100459.81;;;23.32;92.65
50356;BME280;36264;51.296;-0.602;2023-07-28T10:14:45;100456.19;;;23.43;93.14
50356;BME280;36264;51.296;-0.602;2023-07-28T10:17:15;100467.22;;;23.48;93.61
50356;BME280;36264;51.296;-0.602;2023-07-28T10:19:42;100461.78;;;23.40;93.56
50356;BME280;36264;51.296;-0.602;2023-07-28T10:22:10;100459.41;;;23.57;91.71
50356;BME280;36264;51.296;-0.602;2023-07-28T10:24:56;100454.41;;;23.63;89.25
50356;BME280;36264;51.296;-0.602;2023-07-28T10:29:59;100458.72;;;23.45;92.07
50356;BME280;36264;51.296;-0.602;2023-07-28T10:32:26;100456.59;;;23.58;91.39
50356;BME280;36264;51.296;-0.602;2023-07-28T10:35:30;100455.50;;;23.80;89.79
50356;BME280;36264;51.296;-0.602;2023-07-28T10:37:57;100449.22;;;23.52;91.76
50356;BME280;36264;51.296;-0.602;2023-07-28T10:40:31;100463.03;;;23.65;90.66
50356;BME280;36264;51.296;-0.602;2023-07-28T10:42:59;100466.66;;;23.35;90.88
50356;BME280;36264;51.296;-0.602;2023-07-28T10:45:26;100464.28;;;23.42;92.09
50356;BME280;36264;51.296;-0.602;2023-07-28T10:47:53;100458.84;;;23.33;92.50
50356;BME280;36264;51.296;-0.602;2023-07-28T10:50:21;100466.47;;;23.17;92.46
50356;BME280;36264;51.296;-0.602;2023-07-28T10:52:46;100467.88;;;23.21;92.33
50356;BME280;36264;51.296;-0.602;2023-07-28T10:55:16;100458.28;;;23.49;91.57
50356;BME280;36264;51.296;-0.602;2023-07-28T10:57:43;100459.44;;;23.66;92.09
50356;BME280;36264;51.296;-0.602;2023-07-28T11:00:10;100458.47;;;23.87;90.62
50356;BME280;36264;51.296;-0.602;2023-07-28T11:02:57;100459.94;;;24.19;87.77
50356;BME280;36264;51.296;-0.602;2023-07-28T11:05:30;100455.84;;;24.34;88.53
50356;BME280;36264;51.296;-0.602;2023-07-28T11:08:00;100453.72;;;24.57;87.87
50356;BME280;36264;51.296;-0.602;2023-07-28T11:10:30;100452.72;;;24.86;87.44
50356;BME280;36264;51.296;-0.602;2023-07-28T11:12:58;100448.78;;;25.18;86.73
50356;BME280;36264;51.296;-0.602;2023-07-28T11:15:24;100445.25;;;25.45;85.37
50356;BME280;36264;51.296;-0.602;2023-07-28T11:17:51;100437.66;;;25.51;82.49
50356;BME280;36264;51.296;-0.602;2023-07-28T11:20:25;100442.91;;;25.60;82.31
50356;BME280;36264;51.296;-0.602;2023-07-28T11:23:01;100434.63;;;25.63;80.56
50356;BME280;36264;51.296;-0.602;2023-07-28T11:25:29;100442.19;;;25.58;84.17
50356;BME280;36264;51.296;-0.602;2023-07-28T11:27:55;100441.91;;;25.61;83.64
50356;BME280;36264;51.296;-0.602;2023-07-28T11:30:22;100436.81;;;25.50;82.96
50356;BME280;36264;51.296;-0.602;2023-07-28T11:32:49;100436.88;;;25.22;83.44
50356;BME280;36264;51.296;-0.602;2023-07-28T11:35:16;100448.94;;;24.61;84.15
50356;BME280;36264;51.296;-0.602;2023-07-28T11:37:43;100449.09;;;24.50;87.17
50356;BME280;36264;51.296;-0.602;2023-07-28T11:40:10;100450.09;;;24.58;87.29
50356;BME280;36264;51.296;-0.602;2023-07-28T11:42:44;100447.72;;;24.83;85.77
50356;BME280;36264;51.296;-0.602;2023-07-28T11:45:10;100439.81;;;24.73;86.53
50356;BME280;36264;51.296;-0.602;2023-07-28T11:47:37;100447.38;;;24.68;86.08
50356;BME280;36264;51.296;-0.602;2023-07-28T11:50:03;100449.31;;;24.76;86.18
50356;BME280;36264;51.296;-0.602;2023-07-28T11:52:33;100455.84;;;24.82;87.28
50356;BME280;36264;51.296;-0.602;2023-07-28T11:55:00;100454.34;;;24.69;86.46
50356;BME280;36264;51.296;-0.602;2023-07-28T11:57:26;100457.63;;;24.63;87.37
50356;BME280;36264;51.296;-0.602;2023-07-28T11:59:53;100461.03;;;24.73;88.13
50356;BME280;36264;51.296;-0.602;2023-07-28T12:02:26;100464.16;;;24.97;87.35
50356;BME280;36264;51.296;-0.602;2023-07-28T12:04:52;100460.56;;;24.60;87.83
50356;BME280;36264;51.296;-0.602;2023-07-28T12:07:26;100470.72;;;24.55;88.32
50356;BME280;36264;51.296;-0.602;2023-07-28T12:09:52;100469.34;;;24.51;88.26
50356;BME280;36264;51.296;-0.602;2023-07-28T12:12:20;100461.09;;;24.64;88.24
50356;BME280;36264;51.296;-0.602;2023-07-28T12:14:45;100470.31;;;24.50;86.31
50356;BME280;36264;51.296;-0.602;2023-07-28T12:17:16;100471.00;;;24.52;88.10
50356;BME280;36264;51.296;-0.602;2023-07-28T12:20:00;100463.81;;;24.82;87.19
50356;BME280;36264;51.296;-0.602;2023-07-28T12:22:30;100464.69;;;25.00;89.70
50356;BME280;36264;51.296;-0.602;2023-07-28T12:24:55;100460.72;;;25.04;91.34
50356;BME280;36264;51.296;-0.602;2023-07-28T12:27:21;100458.31;;;25.39;94.03
50356;BME280;36264;51.296;-0.602;2023-07-28T12:29:52;100459.75;;;25.69;94.16
50356;BME280;36264;51.296;-0.602;2023-07-28T12:32:18;100450.25;;;25.84;94.40
50356;BME280;36264;51.296;-0.602;2023-07-28T12:34:43;100447.81;;;26.09;91.53
50356;BME280;36264;51.296;-0.602;2023-07-28T12:37:09;100449.50;;;26.45;90.92
50356;BME280;36264;51.296;-0.602;2023-07-28T12:39:38;100446.91;;;26.96;89.04